createdAt,value
2018-12-12T00:02:33.494Z,6.37
2018-12-12T00:07:40.549Z,7.13
2018-12-12T00:12:45.655Z,7.30
2018-12-12T00:17:51.125Z,7.13
2018-12-12T00:22:55.940Z,7.00
2018-12-12T00:28:00.991Z,6.87
2018-12-12T00:33:05.805Z,7.67
2018-12-12T00:38:10.683Z,5.47
2018-12-12T00:43:15.715Z,5.80
2018-12-12T00:48:20.672Z,5.57
2018-12-12T00:53:25.493Z,6.03
2018-12-12T00:58:30.563Z,5.80
2018-12-12T01:03:35.529Z,5.87
2018-12-12T01:08:40.480Z,5.30
2018-12-12T01:13:45.311Z,5.20
2018-12-12T01:18:50.245Z,5.03
2018-12-12T01:23:55.092Z,5.27
2018-12-12T01:29:00.050Z,4.50
2018-12-12T01:34:05.086Z,4.73
2018-12-12T01:39:10.052Z,4.80
2018-12-12T01:44:15.090Z,4.73
2018-12-12T01:49:20.064Z,5.03
2018-12-12T01:54:24.984Z,4.77
2018-12-12T01:59:29.962Z,5.47
2018-12-12T02:04:35.936Z,5.17
2018-12-12T02:09:40.755Z,4.70
2018-12-12T02:14:45.706Z,4.90
2018-12-12T02:19:50.548Z,4.97
2018-12-12T02:24:55.505Z,5.07
2018-12-12T02:30:00.490Z,5.30
2018-12-12T02:35:05.759Z,5.07
2018-12-12T02:40:10.632Z,4.57
2018-12-12T02:45:15.712Z,5.40
2018-12-12T02:50:20.569Z,5.27
2018-12-12T02:55:25.599Z,5.73
2018-12-12T03:00:30.541Z,6.10
2018-12-12T03:05:35.367Z,6.77
2018-12-12T03:10:40.321Z,6.73
2018-12-12T03:15:45.208Z,7.93
2018-12-12T03:20:50.046Z,8.10
2018-12-12T03:25:55.003Z,8.37
2018-12-12T03:30:59.946Z,7.87
2018-12-12T03:36:04.775Z,7.33
2018-12-12T03:41:09.685Z,7.23
2018-12-12T03:46:14.572Z,7.30
2018-12-12T03:51:19.411Z,7.53
2018-12-12T03:56:24.371Z,8.33
2018-12-12T04:01:29.416Z,8.23
2018-12-12T04:06:34.474Z,9.10
2018-12-12T04:11:39.378Z,8.30
2018-12-12T04:16:44.352Z,7.47
2018-12-12T04:21:49.444Z,7.60
2018-12-12T04:26:54.461Z,6.53
2018-12-12T04:31:59.324Z,6.80
2018-12-12T04:37:04.252Z,6.90
2018-12-12T04:42:09.196Z,6.50
2018-12-12T04:47:14.229Z,5.00
2018-12-12T04:52:19.092Z,5.03
2018-12-12T04:57:24.151Z,4.87
2018-12-12T05:02:28.870Z,5.43
2018-12-12T05:07:33.814Z,5.60
2018-12-12T05:12:38.772Z,7.50
2018-12-12T05:17:43.727Z,7.57
2018-12-12T05:22:49.415Z,8.27
2018-12-12T05:27:54.343Z,7.27
2018-12-12T05:32:59.406Z,8.70
2018-12-12T05:38:04.216Z,7.93
2018-12-12T05:43:10.223Z,7.10
2018-12-12T05:48:15.159Z,6.30
2018-12-12T05:53:20.006Z,6.03
2018-12-12T05:58:24.918Z,5.80
2018-12-12T06:03:29.787Z,5.70
2018-12-12T06:08:34.670Z,7.60
2018-12-12T06:13:39.700Z,7.43
2018-12-12T06:18:44.549Z,8.30
2018-12-12T06:23:49.592Z,8.20
2018-12-12T06:28:54.414Z,7.87
2018-12-12T06:33:59.373Z,6.07
2018-12-12T06:39:06.113Z,5.43
2018-12-12T06:44:11.942Z,4.23
2018-12-12T06:49:17.081Z,4.30
2018-12-12T06:54:21.891Z,5.83
2018-12-12T06:59:26.683Z,8.93
2018-12-12T07:04:31.649Z,9.97
2018-12-12T07:09:36.451Z,9.90
2018-12-12T07:14:41.388Z,8.93
2018-12-12T07:19:46.362Z,8.23
2018-12-12T07:24:51.314Z,6.87
2018-12-12T07:29:56.376Z,7.37
2018-12-12T07:35:01.317Z,7.37
2018-12-12T07:40:06.411Z,9.83
2018-12-12T07:45:12.528Z,8.30
2018-12-12T07:50:19.551Z,8.43
2018-12-12T07:55:29.929Z,7.67
2018-12-12T08:00:34.971Z,7.23
2018-12-12T08:05:39.805Z,7.57
2018-12-12T08:10:44.659Z,8.73
2018-12-12T08:15:49.496Z,9.60
2018-12-12T08:20:54.452Z,10.00
2018-12-12T08:25:59.576Z,9.63
2018-12-12T08:31:04.464Z,9.20
2018-12-12T08:36:09.296Z,10.90
2018-12-12T08:41:14.279Z,8.10
2018-12-12T08:46:19.081Z,7.43
2018-12-12T08:51:24.131Z,8.00
2018-12-12T08:56:28.996Z,8.30
2018-12-12T09:01:34.189Z,7.97
2018-12-12T09:06:39.107Z,9.47
2018-12-12T09:11:44.036Z,9.50
2018-12-12T09:16:48.977Z,7.60
2018-12-12T09:21:55.577Z,9.07
2018-12-12T09:27:00.498Z,10.73
2018-12-12T09:32:05.411Z,17.87
2018-12-12T09:37:12.465Z,10.07
2018-12-12T09:42:17.415Z,9.93
2018-12-12T09:47:22.583Z,9.87
2018-12-12T09:52:27.523Z,10.53
2018-12-12T09:57:34.529Z,11.50
2018-12-12T10:02:39.460Z,11.00
2018-12-12T10:07:44.527Z,11.13
2018-12-12T10:12:49.449Z,10.47
2018-12-12T10:17:54.407Z,10.13
2018-12-12T10:22:59.361Z,11.10
2018-12-12T10:28:04.311Z,10.47
2018-12-12T10:33:09.215Z,10.97
2018-12-12T10:38:14.189Z,11.57
2018-12-12T10:43:18.951Z,10.90
2018-12-12T10:48:23.782Z,12.47
2018-12-12T10:53:28.828Z,12.37
2018-12-12T10:58:33.670Z,11.77
2018-12-12T11:03:44.360Z,11.57
2018-12-12T11:08:49.610Z,10.77
2018-12-12T11:13:54.581Z,10.67
2018-12-12T11:18:59.623Z,10.90
2018-12-12T11:24:04.569Z,11.07
2018-12-12T11:29:09.723Z,9.60
2018-12-12T11:34:14.667Z,10.90
2018-12-12T11:39:19.495Z,8.97
2018-12-12T11:44:24.455Z,10.57
2018-12-12T11:49:29.423Z,10.33
2018-12-12T11:54:34.362Z,10.37
2018-12-12T11:59:39.404Z,11.27
2018-12-12T12:04:44.295Z,9.20
2018-12-12T12:09:50.236Z,9.37
2018-12-12T12:14:55.072Z,8.30
2018-12-12T12:20:00.028Z,9.00
2018-12-12T12:25:05.469Z,9.20
2018-12-12T12:30:11.452Z,8.40
2018-12-12T12:35:16.517Z,9.73
2018-12-12T12:40:21.471Z,8.80
2018-12-12T12:45:26.395Z,8.87
2018-12-12T12:50:31.347Z,9.53
2018-12-12T12:55:36.400Z,8.57
2018-12-12T13:00:41.333Z,9.27
2018-12-12T13:05:46.261Z,8.90
2018-12-12T13:10:51.238Z,10.23
2018-12-12T13:15:56.334Z,9.27
2018-12-12T13:21:02.311Z,13.03
2018-12-12T13:26:07.207Z,8.70
2018-12-12T13:31:12.263Z,10.60
2018-12-12T13:36:17.228Z,11.23
2018-12-12T13:41:22.124Z,10.60
2018-12-12T13:46:26.903Z,10.10
2018-12-12T13:51:31.957Z,11.20
2018-12-12T13:56:36.901Z,13.17
2018-12-12T14:01:41.761Z,11.63
2018-12-12T14:06:46.702Z,12.40
2018-12-12T14:11:51.646Z,12.27
2018-12-12T14:16:56.495Z,11.23
2018-12-12T14:22:01.412Z,11.97
2018-12-12T14:27:06.365Z,11.80
2018-12-12T14:32:11.244Z,12.20
2018-12-12T14:37:16.180Z,12.37
2018-12-12T14:42:21.251Z,12.90
2018-12-12T14:47:26.187Z,13.20
2018-12-12T14:52:31.108Z,12.47
2018-12-12T14:57:37.671Z,13.67
2018-12-12T15:02:42.557Z,12.00
2018-12-12T15:07:47.396Z,12.73
2018-12-12T15:12:52.263Z,17.33
2018-12-12T15:17:57.216Z,14.40
2018-12-12T15:23:02.148Z,13.83
2018-12-12T15:28:07.060Z,13.03
2018-12-12T15:33:12.028Z,13.07
2018-12-12T15:38:16.987Z,14.00
2018-12-12T15:43:21.949Z,15.50
2018-12-12T15:48:26.985Z,19.67
2018-12-12T15:53:31.848Z,23.03
2018-12-12T15:58:36.791Z,19.40
2018-12-12T16:03:41.651Z,16.77
2018-12-12T16:08:46.488Z,17.70
2018-12-12T16:13:51.574Z,21.40
2018-12-12T16:18:56.678Z,20.60
2018-12-12T16:24:01.635Z,18.33
2018-12-12T16:29:06.653Z,23.40
2018-12-12T16:34:11.538Z,19.40
2018-12-12T16:39:16.563Z,20.37
2018-12-12T16:44:21.419Z,20.37
2018-12-12T16:49:45.134Z,35.63
2018-12-12T16:54:49.957Z,28.27
2018-12-12T16:59:54.871Z,26.23
2018-12-12T17:05:02.400Z,25.97
2018-12-12T17:10:10.808Z,24.20
2018-12-12T17:15:15.785Z,18.23
2018-12-12T17:20:22.180Z,18.47
2018-12-12T17:25:27.352Z,15.50
2018-12-12T17:30:32.357Z,14.43
2018-12-12T17:35:37.717Z,13.97
2018-12-12T17:40:42.436Z,16.27
2018-12-12T17:45:46.992Z,15.80
2018-12-12T17:50:51.554Z,15.67
2018-12-12T17:55:56.083Z,15.63
2018-12-12T18:01:00.753Z,14.67
2018-12-12T18:06:07.378Z,15.27
2018-12-12T18:11:11.992Z,16.37
2018-12-12T18:16:16.573Z,16.17
2018-12-12T18:21:21.496Z,18.07
2018-12-12T18:26:28.159Z,17.57
2018-12-12T18:31:32.794Z,21.03
2018-12-12T18:36:54.361Z,19.93
2018-12-12T18:41:58.996Z,21.57
2018-12-12T18:47:23.406Z,20.30
2018-12-12T18:52:27.971Z,19.80
2018-12-12T18:57:32.545Z,19.33
2018-12-12T19:02:37.208Z,18.27
2018-12-12T19:07:43.012Z,18.43
2018-12-12T19:12:47.821Z,17.30
2018-12-12T19:17:52.825Z,19.17
2018-12-12T19:22:57.679Z,19.30
2018-12-12T19:28:02.313Z,20.33
2018-12-12T19:33:07.063Z,19.63
2018-12-12T19:38:11.691Z,20.80
2018-12-12T19:43:16.266Z,20.10
2018-12-12T19:48:21.924Z,19.13
2018-12-12T19:53:26.548Z,19.43
2018-12-12T19:58:31.159Z,19.67
2018-12-12T20:03:35.758Z,19.93
2018-12-12T20:08:40.347Z,20.43
2018-12-12T20:13:44.916Z,18.60
2018-12-12T20:18:49.577Z,19.13
2018-12-12T20:23:54.149Z,20.20
2018-12-12T20:28:58.727Z,19.87
2018-12-12T20:34:03.298Z,20.37
2018-12-12T20:39:08.384Z,20.53
2018-12-12T20:44:14.163Z,22.87
2018-12-12T20:49:18.831Z,20.37
2018-12-12T20:54:23.377Z,20.87
2018-12-12T20:59:27.908Z,23.33
2018-12-12T21:04:32.573Z,22.40
2018-12-12T21:09:37.134Z,21.10
2018-12-12T21:14:41.763Z,20.57
2018-12-12T21:19:46.350Z,19.23
2018-12-12T21:24:51.796Z,22.17
2018-12-12T21:29:56.368Z,21.37
2018-12-12T21:35:00.959Z,21.13
2018-12-12T21:40:05.905Z,22.17
2018-12-12T21:45:10.496Z,20.57
2018-12-12T21:50:15.178Z,20.40
2018-12-12T21:55:19.766Z,20.27
2018-12-12T22:00:24.317Z,18.23
2018-12-12T22:05:28.945Z,19.83
2018-12-12T22:10:33.521Z,19.53
2018-12-12T22:15:38.078Z,20.53
2018-12-12T22:20:42.666Z,18.83
2018-12-12T22:25:47.268Z,18.57
2018-12-12T22:30:51.875Z,17.90
2018-12-12T22:35:56.405Z,19.87
2018-12-12T22:41:00.950Z,21.63
2018-12-12T22:46:05.528Z,19.20
2018-12-12T22:51:10.130Z,17.27
2018-12-12T22:56:14.745Z,18.07
2018-12-12T23:01:24.217Z,17.90
2018-12-12T23:06:28.881Z,19.20
2018-12-12T23:11:33.571Z,19.00
2018-12-12T23:16:38.145Z,18.97
2018-12-12T23:21:42.742Z,18.10
2018-12-12T23:26:53.636Z,19.70
2018-12-12T23:31:58.210Z,18.43
2018-12-12T23:37:02.768Z,19.33
2018-12-12T23:42:07.337Z,19.83
2018-12-12T23:47:11.904Z,18.30
2018-12-12T23:52:16.490Z,18.63
2018-12-12T23:57:21.066Z,18.13
